Time;durP1;ratioP1;P1;durP2;ratioP2;P2;SDS_P1;SDS_P2;PMS_P1;PMS_P2;Temp;Humidity;BMP_temperature;BMP_pressure;BME280_temperature;BME280_humidity;BME280_pressure;Samples;Min_cycle;Max_cycle;Signal;HPM_P1;HPM_P2
2023/08/26 00:00:26;;;;;;;101.88;60.17;;;;;;;;;;4993150;28;20026;-72
2023/08/26 00:02:51;;;;;;;104.00;59.53;;;19.00;99.90;;;;;;4994101;28;20105;-72
2023/08/26 00:05:18;;;;;;;106.30;60.45;;;;;;;;;;4994403;28;20084;-71
2023/08/26 00:07:44;;;;;;;106.20;61.80;;;;;;;;;;4993171;28;20061;-72
2023/08/26 00:10:10;;;;;;;105.95;60.03;;;;;;;;;;4993245;28;20077;-71
2023/08/26 00:12:36;;;;;;;111.45;61.15;;;;;;;;;;4993929;28;20034;-71
2023/08/26 00:15:02;;;;;;;102.28;59.35;;;;;;;;;;4995566;28;20412;-72
2023/08/26 00:17:28;;;;;;;96.93;57.58;;;;;;;;;;4997155;28;20026;-72
2023/08/26 00:19:55;;;;;;;97.75;58.22;;;;;;;;;;4997391;28;20145;-71
2023/08/26 00:22:21;;;;;;;102.25;58.67;;;;;;;;;;4996441;28;20030;-71
2023/08/26 00:24:47;;;;;;;107.35;62.25;;;;;;;;;;4997337;28;20109;-71
2023/08/26 00:27:13;;;;;;;93.50;56.67;;;;;;;;;;4997269;28;20080;-72
2023/08/26 00:29:40;;;;;;;99.72;60.95;;;;;;;;;;4997110;28;20077;-71
2023/08/26 00:32:06;;;;;;;108.07;61.75;;;;;;;;;;4997305;28;20110;-71
2023/08/26 00:34:32;;;;;;;111.07;61.00;;;;;;;;;;4997078;28;20030;-71
2023/08/26 00:36:58;;;;;;;110.45;63.22;;;;;;;;;;4997225;28;20464;-71
2023/08/26 00:39:24;;;;;;;109.53;61.42;;;;;;;;;;4997147;28;20440;-71
2023/08/26 00:41:50;;;;;;;106.10;61.25;;;;;;;;;;4996952;28;20038;-71
2023/08/26 00:44:16;;;;;;;112.10;62.60;;;;;;;;;;4997090;28;20444;-71
2023/08/26 00:46:42;;;;;;;110.43;62.22;;;;;;;;;;4997221;28;20087;-71
2023/08/26 00:49:08;;;;;;;112.78;61.03;;;;;;;;;;4996110;28;20085;-71
2023/08/26 00:51:36;;;;;;;103.85;59.80;;;;;;;;;;4996937;28;20023;-71
2023/08/26 00:54:02;;;;;;;99.40;58.97;;;;;;;;;;4995893;28;20027;-71
2023/08/26 00:56:29;;;;;;;104.57;59.25;;;;;;;;;;4995845;28;20050;-71
2023/08/26 00:58:55;;;;;;;109.65;61.47;;;;;;;;;;4996962;28;20022;-71
2023/08/26 01:01:21;;;;;;;110.63;60.60;;;;;;;;;;4996661;28;20357;-71
2023/08/26 01:03:47;;;;;;;111.10;61.13;;;;;;;;;;4996536;28;20084;-71
2023/08/26 01:06:13;;;;;;;109.55;61.33;;;;;;;;;;4996563;28;20050;-71
2023/08/26 01:08:39;;;;;;;113.05;61.33;;;;;;;;;;4996803;28;20034;-71
2023/08/26 01:11:12;;;;;;;100.53;60.10;;;;;;;;;;4996538;28;20412;-71
2023/08/26 01:13:58;;;;;;;108.70;60.67;;;;;;;;;;4996458;28;20061;-71
2023/08/26 01:16:24;;;;;;;109.93;63.42;;;;;;;;;;4996097;28;20031;-71
2023/08/26 01:18:51;;;;;;;100.68;58.47;;;;;;;;;;4995567;28;20027;-71
2023/08/26 01:21:18;;;;;;;103.38;57.33;;;;;;;;;;4996540;28;20077;-71
2023/08/26 01:23:45;;;;;;;103.90;58.20;;;;;;;;;;4996276;28;20038;-71
2023/08/26 01:26:11;;;;;;;104.95;58.08;;;;;;;;;;4996443;28;20109;-71
2023/08/26 01:28:37;;;;;;;105.65;59.25;;;;;;;;;;4996398;28;20108;-71
2023/08/26 01:31:07;;;;;;;108.05;60.08;;;;;;;;;;4996131;28;20026;-71
2023/08/26 01:33:35;;;;;;;103.80;56.78;;;;;;;;;;4995412;28;20173;-71
2023/08/26 01:36:03;;;;;;;98.93;55.15;;;;;;;;;;4996074;28;20034;-71
2023/08/26 01:38:30;;;;;;;99.43;55.28;;;;;;;;;;4996109;28;20030;-71
2023/08/26 01:40:56;;;;;;;90.75;51.55;;;;;;;;;;4995996;28;20038;-71
2023/08/26 01:43:24;;;;;;;86.90;50.88;;;;;;;;;;4995811;28;20372;-73
2023/08/26 01:45:52;;;;;;;84.07;49.47;;;;;;;;;;4995795;28;20122;-71
2023/08/26 01:48:18;;;;;;;82.85;49.13;;;;;;;;;;4995199;28;20126;-71
2023/08/26 01:50:44;;;;;;;86.13;49.83;;;;;;;;;;4995184;28;20052;-71
2023/08/26 01:53:11;;;;;;;74.72;46.80;;;;;;;;;;4995897;28;20121;-70
2023/08/26 01:55:37;;;;;;;83.53;49.47;;;;;;;;;;4995572;28;20362;-71
2023/08/26 01:58:03;;;;;;;81.28;49.28;;;;;;;;;;4994888;28;20153;-71
2023/08/26 02:00:29;;;;;;;83.40;48.20;;;;;;;;;;4995593;28;20061;-71
2023/08/26 02:02:55;;;;;;;81.57;48.92;;;;;;;;;;4994631;28;20485;-71
2023/08/26 02:05:21;;;;;;;79.30;47.63;;;;;;;;;;4995388;28;20028;-71
2023/08/26 02:07:47;;;;;;;75.88;47.25;;;;;;;;;;4994342;28;20086;-71
2023/08/26 02:10:13;;;;;;;79.32;47.30;;;;;;;;;;4994648;28;20069;-72
2023/08/26 02:12:39;;;;;;;84.25;47.65;;;;;;;;;;4995306;28;20061;-71
2023/08/26 02:15:06;;;;;;;83.20;48.33;;;;;;;;;;4994931;28;20477;-72
2023/08/26 02:17:32;;;;;;;84.50;51.20;;;;;;;;;;4995218;28;20026;-71
2023/08/26 02:19:58;;;;;;;91.45;52.38;;;;;;;;;;4994662;28;20037;-71
2023/08/26 02:22:24;;;;;;;94.47;53.90;;;;;;;;;;4995178;28;20042;-71
2023/08/26 02:24:51;;;;;;;94.30;54.42;;;;;;;;;;4995191;28;20401;-71
2023/08/26 02:27:17;;;;;;;100.22;54.17;;;;;;;;;;4995138;28;20459;-72
2023/08/26 02:29:43;;;;;;;102.30;56.22;;;;;;;;;;4994084;28;20027;-71
2023/08/26 02:32:09;;;;;;;101.28;57.80;;;;;;;;;;4995143;28;20034;-76
2023/08/26 02:34:37;;;;;;;110.18;58.40;;;;;;;;;;4995010;28;20022;-71
2023/08/26 02:37:03;;;;;;;107.63;58.08;;;;;;;;;;4994549;28;20457;-71
2023/08/26 02:39:29;;;;;;;108.35;59.67;;;;;;;;;;4994885;28;20349;-72
2023/08/26 02:41:55;;;;;;;108.55;61.55;;;;;;;;;;4994939;28;20054;-71
2023/08/26 02:44:21;;;;;;;112.38;62.63;;;;;;;;;;4994835;28;20034;-71
2023/08/26 02:46:47;;;;;;;112.10;60.05;;;;;;;;;;4994785;28;20027;-71
2023/08/26 02:49:13;;;;;;;109.28;62.15;;;;;;;;;;4993719;28;20103;-71
2023/08/26 02:51:39;;;;;;;106.90;60.65;;;;;;;;;;4995016;28;20544;-71
2023/08/26 02:54:05;;;;;;;114.43;62.15;;;;;;;;;;4994605;28;20101;-71
2023/08/26 02:56:31;;;;;;;109.93;61.65;;;;;;;;;;4994630;28;20354;-71
2023/08/26 02:58:57;;;;;;;110.47;60.00;;;;;;;;;;4994752;28;20033;-71
2023/08/26 03:01:24;;;;;;;120.82;63.67;;;;;;;;;;4994619;28;20037;-71
2023/08/26 03:03:50;;;;;;;112.72;61.85;;;;;;;;;;4994639;28;20040;-72
2023/08/26 03:06:16;;;;;;;111.72;62.55;;;;;;;;;;4993985;28;20067;-71
2023/08/26 03:08:42;;;;;;;114.90;62.83;;;;;;;;;;4994458;28;20042;-71
2023/08/26 03:11:08;;;;;;;117.65;63.42;;;;;;;;;;4994510;28;20058;-71
2023/08/26 03:13:34;;;;;;;112.10;61.75;;;;;;;;;;4994520;28;20492;-71
2023/08/26 03:16:08;;;;;;;109.22;63.35;;;;;;;;;;4994491;28;20054;-71
2023/08/26 03:18:34;;;;;;;119.72;62.45;;;;;;;;;;4994790;28;20048;-71
2023/08/26 03:21:04;;;;;;;124.95;64.63;;;;;;;;;;4994512;28;20034;-72
2023/08/26 03:23:30;;;;;;;116.13;62.55;;;;;;;;;;4994445;28;20038;-71
2023/08/26 03:25:56;;;;;;;108.53;61.70;;;;;;;;;;4994375;28;20420;-71
2023/08/26 03:28:22;;;;;;;107.07;61.47;;;;;;;;;;4994421;28;20030;-71
2023/08/26 03:30:48;;;;;;;112.43;61.05;;;;;;;;;;4994051;28;20037;-71
2023/08/26 03:33:14;;;;;;;107.00;57.75;;;;;;;;;;4994356;28;20043;-71
2023/08/26 03:35:40;;;;;;;97.28;55.08;;;;;;;;;;4994239;28;20027;-71
2023/08/26 03:38:06;;;;;;;81.03;48.10;;;;;;;;;;4994314;28;20477;-72
2023/08/26 03:40:32;;;;;;;70.07;42.03;;;;;;;;;;4994297;28;20034;-72
2023/08/26 03:43:01;;;;;;;57.28;35.45;;;;;;;;;;4993865;28;20033;-72
2023/08/26 03:45:32;;;;;;;17.58;8.52;;;;;;;;;;4994188;28;20031;-71
2023/08/26 03:48:00;;;;;;;9.15;5.20;;;;;;;;;;4993802;28;20494;-71
2023/08/26 03:50:29;;;;;;;7.07;3.90;;;;;;;;;;4996888;28;20084;-70
2023/08/26 03:52:58;;;;;;;11.05;3.65;;;;;;;;;;4997380;28;20026;-71
2023/08/26 03:55:27;;;;;;;10.07;3.97;;;;;;;;;;4997985;28;20393;-71
2023/08/26 03:57:56;;;;;;;8.95;3.80;;;;;;;;;;4997950;28;20026;-71
2023/08/26 04:00:23;;;;;;;8.40;3.63;;;;;;;;;;4997890;28;20471;-71
2023/08/26 04:02:52;;;;;;;12.10;4.10;;;;;;;;;;4997766;28;20030;-71
2023/08/26 04:05:20;;;;;;;10.32;3.85;;;;;;;;;;4998019;28;20068;-71
2023/08/26 04:07:49;;;;;;;9.45;3.80;;;;;;;;;;4996909;28;20519;-71
2023/08/26 04:10:17;;;;;;;7.82;3.22;;;;;;;;;;4997227;28;20027;-71
2023/08/26 04:12:45;;;;;;;4.80;3.22;;;;;;;;;;4997606;28;20472;-72
2023/08/26 04:15:14;;;;;;;10.88;3.38;;;;;;;;;;4997596;28;20096;-71
2023/08/26 04:17:42;;;;;;;10.77;3.20;;;;;;;;;;4997605;28;20057;-71
2023/08/26 04:20:12;;;;;;;12.52;3.47;;;;;;;;;;4997166;28;20030;-72
2023/08/26 04:22:40;;;;;;;8.45;3.40;;;;;;;;;;4996995;28;20032;-75
2023/08/26 04:25:09;;;;;;;11.23;4.03;;;;;;;;;;4997431;28;20038;-71
2023/08/26 04:27:37;;;;;;;6.07;2.83;;;;;;;;;;4996959;28;20077;-71
2023/08/26 04:30:06;;;;;;;8.48;3.55;;;;;;;;;;4997222;28;20041;-71
2023/08/26 04:32:33;;;;;;;12.30;3.55;;;;;;;;;;4997283;28;20464;-71
2023/08/26 04:35:01;;;;;;;10.43;4.10;;;;;;;;;;4997186;28;20081;-71
2023/08/26 04:37:28;;;;;;;14.70;3.58;;;;;;;;;;4997224;28;20061;-71
2023/08/26 04:39:56;;;;;;;13.95;4.13;;;;;;;;;;4997406;28;20058;-71
2023/08/26 04:42:23;;;;;;;7.75;3.60;;;;;;;;;;4996183;28;20117;-71
2023/08/26 04:44:49;;;;;;;13.65;3.97;;;;;;;;;;4997003;28;20036;-71
2023/08/26 04:47:15;;;;;;;9.35;4.15;;;;;;;;;;4997251;28;20034;-72
2023/08/26 04:49:41;;;;;;;11.15;4.13;;;;;;;;;;4997000;28;20026;-71
2023/08/26 04:52:07;;;;;;;10.40;3.83;;;;;;;;;;4996944;28;20029;-71
2023/08/26 04:54:35;;;;;;;7.95;3.80;;;;;;;;;;4996873;28;20030;-71
2023/08/26 04:57:02;;;;;;;8.27;3.90;;;;;;;;;;4996915;28;20489;-71
2023/08/26 04:59:28;;;;;;;8.27;3.45;;;;;;;;;;4995958;28;20091;-71
2023/08/26 05:01:56;;;;;;;11.80;4.30;;;;;;;;;;4996574;28;20039;-71
2023/08/26 05:04:24;;;;;;;5.38;3.85;;;;;;;;;;4996167;28;20030;-71
2023/08/26 05:06:54;;;;;;;8.68;3.58;;;;;;;;;;4995811;28;20141;-71
2023/08/26 05:09:21;;;;;;;9.73;3.90;;;;;;;;;;4996726;28;20061;-71
2023/08/26 05:11:49;;;;;;;7.18;3.63;;;;;;;;;;4995646;28;20026;-73
2023/08/26 05:14:17;;;;;;;7.70;3.00;;;;;;;;;;4996825;28;20026;-72
2023/08/26 05:16:44;;;;;;;10.32;3.47;;;;;;;;;;4996468;28;20538;-71
2023/08/26 05:19:13;;;;;;;12.38;3.60;;;;;;;;;;4995817;28;20027;-75
2023/08/26 05:21:41;;;;;;;8.20;3.97;;;;;;;;;;4996413;28;20029;-71
2023/08/26 05:24:10;;;;;;;9.60;3.70;;;;;;;;;;4996329;28;20027;-71
2023/08/26 05:26:39;;;;;;;11.65;3.33;;;;;;;;;;4995826;28;20026;-71
2023/08/26 05:29:05;;;;;;;10.82;3.58;;;;;;;;;;4995949;28;20032;-71
2023/08/26 05:31:33;;;;;;;13.40;3.97;;;;;;;;;;4996047;28;20121;-72
2023/08/26 05:34:00;;;;;;;8.60;3.83;;;;;;;;;;4996110;28;20060;-72
2023/08/26 05:36:28;;;;;;;11.05;4.00;;;;;;;;;;4996156;28;20066;-71
2023/08/26 05:38:55;;;;;;;8.02;3.80;;;;;;;;;;4995627;28;20054;-71
2023/08/26 05:41:23;;;;;;;11.13;4.22;;;;;;;;;;4996042;28;20072;-71
2023/08/26 05:43:51;;;;;;;7.70;3.95;;;;;;;;;;4995946;28;20030;-72
2023/08/26 05:46:18;;;;;;;11.48;3.97;;;;;;;;;;4995506;28;20157;-72
2023/08/26 05:48:46;;;;;;;14.80;3.97;;;;;;;;;;4995679;28;20119;-72
2023/08/26 05:51:15;;;;;;;12.57;3.65;;;;;;;;;;4995535;28;20517;-71
2023/08/26 05:53:44;;;;;;;9.50;3.53;;;;;;;;;;4995251;28;20085;-71
2023/08/26 05:56:13;;;;;;;9.45;3.72;;;;;;;;;;4995501;28;20440;-71
2023/08/26 05:58:42;;;;;;;7.45;3.03;;;;;;;;;;4994745;28;20026;-71
2023/08/26 06:01:10;;;;;;;9.00;3.28;;;;;;;;;;4995625;28;20052;-71
2023/08/26 06:03:39;;;;;;;9.65;3.40;;;;;;;;;;4995475;28;20026;-71
2023/08/26 06:06:09;;;;;;;8.07;3.10;;;;;;;;;;4994735;28;20085;-71
2023/08/26 06:08:36;;;;;;;5.30;2.90;;;;;;;;;;4995381;28;20026;-72
2023/08/26 06:11:05;;;;;;;7.50;2.60;;;;;;;;;;4994520;28;20149;-72
2023/08/26 06:13:34;;;;;;;8.13;3.35;;;;;;;;;;4994916;28;20034;-72
2023/08/26 06:16:04;;;;;;;8.05;3.17;;;;;;;;;;4995338;28;20026;-72
2023/08/26 06:18:31;;;;;;;6.43;2.97;;;;;;;;;;4995250;28;20072;-72
2023/08/26 06:20:59;;;;;;;10.00;2.58;;;;;;;;;;4995333;28;20034;-72
2023/08/26 06:23:29;;;;;;;8.10;2.65;;;;;;;;;;4995124;28;20483;-72
2023/08/26 06:25:57;;;;;;;7.70;2.67;;;;;;;;;;4994698;28;20472;-71
2023/08/26 06:28:25;;;;;;;7.82;2.78;;;;;;;;;;4994719;28;20064;-72
2023/08/26 06:30:58;;;;;;;8.88;2.25;;;;;;;;;;4995012;28;20030;-73
2023/08/26 06:33:26;;;;;;;;;;;;;;;;;;4995391;28;20089;-72
2023/08/26 06:35:54;;;;;;;6.25;2.58;;;;;;;;;;4994966;28;19973;-72
2023/08/26 06:38:23;;;;;;;8.60;2.58;;;;;;;;;;4994940;28;20089;-72
2023/08/26 06:40:59;;;;;;;6.20;2.40;;;;;;;;;;4994566;28;20038;-72
2023/08/26 06:43:27;;;;;;;9.82;2.55;;;;;;;;;;4994896;28;20113;-72
2023/08/26 06:45:54;;;;;;;7.80;2.03;;;;;;;;;;4994905;28;20380;-72
2023/08/26 06:48:21;;;;;;;5.55;2.25;;;;;;;;;;4994867;28;20032;-72
2023/08/26 06:50:49;;;;;;;8.43;2.38;;;;;;;;;;4994792;28;20030;-73
2023/08/26 06:53:24;;;;;;;7.90;2.35;;;;;;;;;;4994781;28;20069;-72
2023/08/26 06:55:53;;;;;;;10.10;2.50;;;;;;;;;;4994927;28;20019;-72
2023/08/26 06:58:23;;;;;;;5.97;2.40;;;;;;;;;;4994234;28;20033;-72
2023/08/26 07:00:50;;;;;;;7.32;2.10;;;;;;;;;;4994807;28;20113;-72
2023/08/26 07:03:17;;;;;;;8.88;2.08;;;;;;;;;;4994801;28;20416;-72
2023/08/26 07:05:46;;;;;;;10.50;2.20;;;;;;;;;;4994631;28;20117;-72
2023/08/26 07:08:14;;;;;;;8.25;2.20;;;;;;;;;;4994397;28;20040;-72
2023/08/26 07:10:41;;;;;;;6.63;2.10;;;;;;;;;;4993939;28;20070;-72
2023/08/26 07:13:08;;;;;;;6.45;2.30;;;;;;;;;;4994293;28;20507;-72
2023/08/26 07:15:34;;;;;;;6.78;2.15;;;;;;;;;;4994169;28;20451;-72
2023/08/26 07:18:02;;;;;;;6.65;2.15;;;;;;;;;;4994555;28;20057;-72
2023/08/26 07:20:28;;;;;;;11.52;2.08;;;;;;;;;;4994424;28;20425;-73
2023/08/26 07:22:54;;;;;;;7.40;2.10;;;;;;;;;;4994945;28;20034;-73
2023/08/26 07:25:21;;;;;;;6.43;1.92;;;;;;;;;;4998185;28;20084;-72
2023/08/26 07:27:47;;;;;;;8.75;2.30;;;;;;;;;;4998484;28;20033;-72
2023/08/26 07:30:13;;;;;;;5.47;1.92;;;;;;;;;;4998261;28;20361;-72
2023/08/26 07:32:40;;;;;;;10.90;2.22;;;;;;;;;;4998123;28;20129;-72
2023/08/26 07:35:07;;;;;;;3.25;1.80;;;;;;;;;;4998350;28;20023;-72
2023/08/26 07:37:33;;;;;;;3.60;1.83;;;;;;;;;;4998217;28;20031;-73
2023/08/26 07:40:01;;;;;;;6.72;2.05;;;;;;;;;;4998355;28;20392;-73
2023/08/26 07:42:27;;;;;;;9.15;2.03;;;;;;;;;;4997669;28;20117;-74
2023/08/26 07:44:53;;;;;;;5.50;2.17;;;;;;;;;;4998056;28;20108;-73
2023/08/26 07:47:20;;;;;;;8.13;2.22;;;;;;;;;;4998171;28;20456;-73
2023/08/26 07:49:47;;;;;;;9.80;1.83;;;;;;;;;;4998174;28;20473;-73
2023/08/26 07:52:14;;;;;;;4.97;2.00;;;;;;;;;;4997752;28;20094;-72
2023/08/26 07:54:40;;;;;;;6.22;2.00;;;;;;;;;;4997912;28;20032;-73
2023/08/26 07:57:06;;;;;;;4.93;2.03;;;;;;;;;;4997878;28;20030;-74
2023/08/26 07:59:33;;;;;;;5.63;1.98;;;;;;;;;;4997867;28;20034;-73
2023/08/26 08:01:59;;;;;;;8.85;1.95;;;;;;;;;;4997395;28;20391;-73
2023/08/26 08:04:25;;;;;;;5.97;1.73;;;;;;;;;;4998181;28;20113;-73
2023/08/26 08:06:51;;;;;;;3.15;1.50;;;;;;;;;;4997472;28;20061;-73
2023/08/26 08:09:17;;;;;;;5.82;1.58;;;;;;;;;;4997733;28;20065;-73
2023/08/26 08:11:43;;;;;;;4.28;1.40;;;;;;;;;;4997553;28;20061;-73
2023/08/26 08:14:09;;;;;;;3.35;1.85;;;;;;;;;;4996744;28;20091;-73
2023/08/26 08:16:35;;;;;;;6.07;1.67;;;;;;;;;;4997472;28;20038;-74
2023/08/26 08:19:01;;;;;;;5.10;1.90;;;;;;;;;;4997609;28;20113;-73
2023/08/26 08:21:27;;;;;;;7.53;1.80;;;;;;;;;;4997444;28;20037;-73
2023/08/26 08:23:54;;;;;;;5.40;1.35;;;;;;;;;;4997200;28;20086;-74
2023/08/26 08:26:21;;;;;;;5.43;1.80;;;;;;;;;;4996382;28;20125;-73
2023/08/26 08:28:48;;;;;;;4.60;1.58;;;;;;;;;;4997478;28;20039;-73
2023/08/26 08:31:15;;;;;;;3.45;1.33;;;;;;;;;;4997227;28;20034;-73
2023/08/26 08:33:42;;;;;;;7.38;1.70;;;;;;;;;;4997277;28;20026;-73
2023/08/26 08:36:10;;;;;;;4.25;1.50;;;;;;;;;;4996461;28;20205;-73
2023/08/26 08:38:36;;;;;;;5.57;1.75;;;;;;;;;;4997142;28;20022;-74
2023/08/26 08:41:02;;;;;;;6.40;1.67;;;;;;;;;;4997125;28;20022;-74
2023/08/26 08:43:30;;;;;;;3.60;1.20;;;;;;;;;;4996616;28;20022;-74
2023/08/26 08:45:57;;;;;;;3.03;1.30;;;;;;;;;;4996945;28;20495;-73
2023/08/26 08:48:23;;;;;;;10.13;1.90;;;;;;;;;;4996867;28;20029;-73
2023/08/26 08:50:50;;;;;;;6.88;1.75;;;;;;;;;;4996809;28;20129;-74
2023/08/26 08:53:17;;;;;;;2.72;1.50;;;;;;;;;;4996600;28;20129;-73
2023/08/26 08:55:43;;;;;;;5.68;2.03;;;;;;;;;;4996824;28;20054;-74
2023/08/26 08:58:12;;;;;;;4.65;1.48;;;;;;;;;;4996790;28;20358;-73
2023/08/26 09:00:38;;;;;;;3.20;1.25;;;;;;;;;;4996757;28;20022;-74
2023/08/26 09:03:07;;;;;;;8.40;1.70;;;;;;;;;;4996984;28;20105;-73
2023/08/26 09:05:33;;;;;;;6.07;1.60;;;;;;;;;;4996725;28;20046;-73
2023/08/26 09:07:59;;;;;;;3.63;1.83;;;;;;;;;;4995751;28;20061;-76
2023/08/26 09:10:26;;;;;;;2.90;1.27;;;;;;;;;;4996120;28;20049;-74
2023/08/26 09:12:52;;;;;;;7.80;1.63;;;;;;;;;;4996080;28;20033;-75
2023/08/26 09:15:18;;;;;;;6.20;1.35;;;;;;;;;;4996512;28;20023;-74
2023/08/26 09:17:45;;;;;;;3.15;1.48;;;;;;;;;;4996503;28;20098;-74
2023/08/26 09:20:12;;;;;;;1.95;1.50;;;;;;;;;;4996354;28;20026;-74
2023/08/26 09:22:38;;;;;;;3.83;1.23;;;;;;;;;;4996082;28;20047;-73
2023/08/26 09:25:05;;;;;;;3.45;1.50;;;;;;;;;;4996333;28;20490;-73
2023/08/26 09:27:35;;;;;;;3.50;1.45;;;;;;;;;;4996227;28;20054;-74
2023/08/26 09:30:02;;;;;;;3.38;1.35;;;;;;;;;;4996455;28;20031;-74
2023/08/26 09:32:31;;;;;;;9.68;1.98;;;;;;;;;;4995435;28;20040;-73
2023/08/26 09:35:08;;;;;;;6.13;1.30;;;;;;;;;;4995608;28;20054;-74
2023/08/26 09:37:34;;;;;;;4.40;1.45;;;;;;;;;;4995963;28;20026;-74
2023/08/26 09:40:00;;;;;;;3.35;1.30;;;;;;;;;;4996046;28;20034;-74
2023/08/26 09:42:26;;;;;;;3.45;1.48;;;;;;;;;;4996006;28;20027;-74
2023/08/26 09:44:56;;;;;;;3.67;1.38;;;;;;;;;;4995822;28;20033;-74
2023/08/26 09:47:22;;;;;;;4.03;1.13;;;;;;;;;;4995101;28;20041;-74
2023/08/26 09:49:49;;;;;;;8.95;1.63;;;;;;;;;;4995789;28;20375;-75
2023/08/26 09:52:15;;;;;;;7.45;1.60;;;;;;;;;;4995087;28;20062;-74
2023/08/26 09:54:42;;;;;;;5.15;1.40;;;;;;;;;;4995816;28;20038;-75
2023/08/26 09:57:08;;;;;;;5.07;1.85;;;;;;;;;;4995432;28;20070;-74
2023/08/26 09:59:34;;;;;;;4.38;1.50;;;;;;;;;;4995573;28;20026;-75
2023/08/26 10:02:03;;;;;;;5.95;2.60;;;;;;;;;;4995098;28;20042;-74
2023/08/26 10:04:31;;;;;;;4.28;1.90;;;;;;;;;;4995584;28;20088;-74
2023/08/26 10:06:59;;;;;;;3.78;1.70;;;;;;;;;;4995014;28;20397;-74
2023/08/26 10:09:27;;;;;;;3.72;1.52;;;;;;;;;;4995079;28;20035;-75
2023/08/26 10:11:55;;;;;;;3.65;1.80;;;;;;;;;;4995324;28;20069;-75
2023/08/26 10:14:22;;;;;;;3.42;1.58;;;;;;;;;;4995442;28;20027;-73
2023/08/26 10:16:48;;;;;;;3.20;1.55;;;;;;;;;;4995408;28;20026;-74
2023/08/26 10:19:15;;;;;;;3.30;1.58;;;;;;;;;;4995255;28;20161;-74
2023/08/26 10:21:41;;;;;;;2.42;1.20;;;;;;;;;;4995211;28;20034;-74
2023/08/26 10:24:07;;;;;;;5.70;1.30;;;;;;;;;;4994669;28;20043;-74
2023/08/26 10:26:33;;;;;;;4.43;1.20;;;;;;;;;;4995227;28;20113;-73
2023/08/26 10:29:00;;;;;;;2.40;0.95;;;;;;;;;;4994334;28;20034;-74
2023/08/26 10:31:34;;;;;;;4.10;1.38;;;;;;;;;;4995040;28;20043;-74
2023/08/26 10:34:12;;;;;;;1.60;1.30;;;;;;;;;;4994963;28;20457;-75
2023/08/26 10:36:39;;;;;;;3.42;1.10;;;;;;;;;;4994964;28;20497;-74
2023/08/26 10:39:13;;;;;;;2.97;1.23;;;;;;;;;;4995063;28;20026;-74
2023/08/26 10:41:39;;;;;;;2.85;1.58;;;;;;;;;;4994893;28;20030;-75
2023/08/26 10:44:05;;;;;;;4.95;1.60;;;;;;;;;;4994979;28;20503;-74
2023/08/26 10:46:33;;;;;;;2.25;1.13;;;;;;;;;;4994813;28;20496;-73
2023/08/26 10:48:59;;;;;;;3.50;1.50;;;;;;;;;;4994543;28;20035;-73
2023/08/26 10:51:26;;;;;;;3.05;1.40;;;;;;;;;;4994759;28;20035;-74
2023/08/26 10:53:52;;;;;;;5.15;1.45;;;;;;;;;;4994231;28;20033;-74
2023/08/26 10:56:20;;;;;;;5.10;1.73;;;;;;;;;;4994680;28;20033;-74
2023/08/26 10:58:47;;;;;;;3.38;1.48;;;;;;;;;;4993945;28;20080;-74
2023/08/26 11:01:13;;;;;;;3.65;1.52;;;;;;;;;;4993872;28;20037;-74
2023/08/26 11:03:39;;;;;;;1.70;0.90;;;;;;;;;;4994553;28;20027;-73
2023/08/26 11:06:08;;;;;;;3.35;1.30;;;;;;;;;;4994358;28;20057;-74
2023/08/26 11:08:37;;;;;;;5.72;1.25;;;;;;;;;;4993851;28;20096;-75
2023/08/26 11:11:03;;;;;;;3.15;1.17;;;;;;;;;;4994536;28;20476;-74
2023/08/26 11:13:29;;;;;;;5.00;1.33;;;;;;;;;;4994328;28;20030;-74
2023/08/26 11:15:55;;;;;;;3.42;1.30;;;;;;;;;;4994483;28;20022;-73
2023/08/26 11:18:22;;;;;;;2.22;1.40;;;;;;;;;;4994535;28;20395;-73
2023/08/26 11:20:49;;;;;;;5.93;1.30;;;;;;;;;;4994794;28;20384;-73
2023/08/26 11:23:15;;;;;;;3.05;1.42;;;;;;;;;;4994315;28;20033;-74
2023/08/26 11:25:41;;;;;;;2.50;1.55;;;;;;;;;;4994336;28;20026;-74
2023/08/26 11:28:09;;;;;;;5.30;1.35;;;;;;;;;;4994172;28;20038;-73
2023/08/26 11:30:36;;;;;;;4.97;1.52;;;;;;;;;;4993991;28;20066;-74
2023/08/26 11:33:09;;;;;;;3.47;1.20;;;;;;;;;;4994097;28;20026;-74
2023/08/26 11:35:36;;;;;;;5.23;1.20;;;;;;;;;;4994301;28;20076;-74
2023/08/26 11:38:03;;;;;;;2.67;1.23;;;;;;;;;;4994162;28;20676;-74
2023/08/26 11:40:29;;;;;;;1.65;1.30;;;;;;;;;;4994335;28;20369;-74
2023/08/26 11:42:55;;;;;;;4.53;1.70;;;;;;;;;;4993611;28;20046;-74
2023/08/26 11:45:20;;;;;;;3.00;1.25;;;;;;;;;;4994333;28;20033;-74
2023/08/26 11:47:47;;;;;;;2.72;1.10;;;;;;;;;;4994488;28;20096;-75
2023/08/26 11:50:13;;;;;;;2.13;1.38;;;;;;;;;;4994196;28;20034;-74
2023/08/26 11:52:41;;;;;;;3.05;1.10;;;;;;;;;;4994190;28;20035;-74
2023/08/26 11:55:08;;;;;;;3.22;1.30;;;;;;;;;;4994354;28;20058;-74
2023/08/26 11:57:35;;;;;;;2.20;1.10;;;;;;;;;;4994231;28;20027;-73
2023/08/26 12:00:09;;;;;;;3.33;1.00;;;;;;;;;;4994099;28;20027;-74
2023/08/26 12:02:36;;;;;;;4.93;1.30;;;;;;;;;;4994102;28;20496;-75
2023/08/26 12:05:02;;;;;;;4.25;1.13;;;;;;;;;;4993966;28;20065;-74
2023/08/26 12:07:30;;;;;;;4.10;1.23;;;;;;;;;;4993302;28;20046;-75
2023/08/26 12:09:57;;;;;;;5.38;1.38;;;;;;;;;;4994658;28;20030;-75
2023/08/26 12:12:24;;;;;;;2.25;0.93;;;;;;;;;;4996867;28;20037;-74
2023/08/26 12:14:51;;;;;;;1.98;1.10;;;;;;;;;;4997687;28;20393;-74
2023/08/26 12:17:17;;;;;;;5.15;1.63;;;;;;;;;;4997535;28;20030;-74
2023/08/26 12:19:44;;;;;;;3.72;1.33;;;;;;;;;;4997608;28;20046;-75
2023/08/26 12:22:11;;;;;;;3.35;1.02;;;;;;;;;;4997395;28;20030;-74
2023/08/26 12:24:37;;;;;;;2.60;0.88;;;;;;;;;;4997448;28;20034;-73
2023/08/26 12:27:11;;;;;;;3.75;1.27;;;;;;;;;;4997403;28;20030;-74
2023/08/26 12:29:38;;;;;;;1.83;0.98;;;;;;;;;;4997380;28;20068;-74
2023/08/26 12:32:04;;;;;;;1.23;1.00;;;;;;;;;;4996587;28;20034;-74
2023/08/26 12:34:30;;;;;;;3.50;1.20;;;;;;;;;;4997239;28;20049;-75
2023/08/26 12:36:57;;;;;;;2.22;0.80;;;;;;;;;;4997246;28;20027;-74
2023/08/26 12:39:24;;;;;;;3.80;1.05;;;;;;;;;;4997177;28;20030;-74
2023/08/26 12:41:51;;;;;;;1.63;1.00;;;;;;;;;;4997456;28;20093;-74
2023/08/26 12:44:17;;;;;;;2.38;1.10;;;;;;;;;;4997060;28;20045;-74
2023/08/26 12:46:43;;;;;;;1.63;1.05;;;;;;;;;;4996724;28;20038;-74
2023/08/26 12:49:09;;;;;;;1.33;0.98;;;;;;;;;;4997010;28;20089;-75
2023/08/26 12:51:35;;;;;;;1.40;1.00;;;;;;;;;;4996948;28;20056;-74
2023/08/26 12:54:01;;;;;;;2.58;1.10;;;;;;;;;;4996945;28;20034;-74
2023/08/26 12:56:27;;;;;;;3.63;1.13;;;;;;;;;;4996899;28;20026;-75
2023/08/26 12:58:53;;;;;;;1.65;0.80;;;;;;;;;;4996888;28;20114;-77
2023/08/26 13:01:20;;;;;;;3.33;1.10;;;;;;;;;;4996662;28;20030;-74
2023/08/26 13:03:45;;;;;;;4.80;1.23;;;;;;;;;;4996721;28;20026;-74
2023/08/26 13:06:13;;;;;;;1.60;1.00;;;;;;;;;;4996014;28;20157;-74
2023/08/26 13:08:39;;;;;;;1.98;0.93;;;;;;;;;;4996668;28;20022;-74
2023/08/26 13:11:05;;;;;;;1.77;1.00;;;;;;;;;;4996560;28;20464;-75
2023/08/26 13:13:31;;;;;;;1.55;0.80;;;;;;;;;;4996229;28;20034;-75
2023/08/26 13:15:57;;;;;;;2.47;1.05;;;;;;;;;;4996516;28;20061;-75
2023/08/26 13:18:23;;;;;;;2.25;1.00;;;;;;;;;;4995856;28;20062;-75
2023/08/26 13:20:49;;;;;;;2.72;0.90;;;;;;;;;;4996070;28;20030;-74
2023/08/26 13:23:15;;;;;;;3.25;1.20;;;;;;;;;;4995569;28;20034;-75
2023/08/26 13:25:41;;;;;;;1.92;0.90;;;;;;;;;;4996373;28;20480;-75
2023/08/26 13:28:07;;;;;;;2.20;1.00;;;;;;;;;;4996271;28;20023;-75
2023/08/26 13:30:33;;;;;;;3.13;1.10;;;;;;;;;;4996246;28;20022;-74
2023/08/26 13:33:00;;;;;;;3.58;1.30;;;;;;;;;;4995747;28;20030;-74
2023/08/26 13:35:26;;;;;;;2.20;1.27;;;;;;;;;;4996220;28;20033;-74
2023/08/26 13:37:51;;;;;;;4.22;1.00;;;22.50;99.90;;;;;;4996330;28;20026;-74
2023/08/26 13:40:17;;;;;;;1.27;0.90;;;22.60;1.00;;;;;;4996173;28;20456;-74
2023/08/26 13:42:42;;;;;;;1.83;0.88;;;22.80;99.90;;;;;;4995728;28;20031;-74
2023/08/26 13:45:08;;;;;;;1.20;0.88;;;22.60;99.90;;;;;;4996239;28;20049;-75
2023/08/26 13:47:34;;;;;;;1.67;0.80;;;22.20;99.90;;;;;;4995665;28;20113;-74
2023/08/26 13:49:59;;;;;;;2.92;0.82;;;21.90;99.90;;;;;;4995837;28;20458;-73
2023/08/26 13:52:25;;;;;;;1.67;1.00;;;21.70;1.00;;;;;;4995703;28;20085;-74
2023/08/26 13:54:51;;;;;;;1.70;1.00;;;22.30;99.90;;;;;;4995626;28;20093;-74
2023/08/26 13:57:17;;;;;;;1.73;1.00;;;22.70;99.90;;;;;;4996078;28;20030;-74
2023/08/26 13:59:42;;;;;;;2.67;0.93;;;22.80;1.00;;;;;;4995297;28;20486;-75
2023/08/26 14:02:08;;;;;;;1.77;0.90;;;23.00;1.00;;;;;;4995671;28;20034;-74
2023/08/26 14:04:34;;;;;;;1.65;0.95;;;23.30;1.00;;;;;;4995752;28;20042;-74
2023/08/26 14:07:00;;;;;;;2.70;0.70;;;23.00;99.90;;;;;;4995067;28;20062;-74
2023/08/26 14:09:26;;;;;;;1.10;0.90;;;22.50;99.90;;;;;;4995788;28;20487;-74
2023/08/26 14:11:52;;;;;;;3.38;1.33;;;22.40;1.00;;;;;;4995459;28;20370;-74
2023/08/26 14:14:18;;;;;;;3.75;1.00;;;22.30;41.50;;;;;;4995115;28;20026;-74
2023/08/26 14:16:44;;;;;;;1.60;0.98;;;22.20;1.00;;;;;;4995588;28;20117;-74
2023/08/26 14:19:10;;;;;;;2.30;0.88;;;22.50;38.30;;;;;;4995511;28;20022;-75
2023/08/26 14:21:37;;;;;;;3.08;0.88;;;22.90;1.00;;;;;;4995561;28;20052;-75
2023/08/26 14:24:03;;;;;;;1.88;1.00;;;23.40;99.90;;;;;;4995422;28;20480;-75